<?xml version="1.0" encoding="UTF-8"?><gpx xmlns="http://www.topografix.com/GPX/1/1" version="1.1" creator="iOrient"><trk><name>Большая прогулка. Пик лета</name><trkseg><trkpt lat="55.7130200" lon="49.1622500"><time>2021-07-17T06:16:23.400</time></trkpt><trkpt lat="55.7129750" lon="49.1622250"><time>2021-07-17T06:16:37.393</time></trkpt><trkpt lat="55.7129267" lon="49.1622333"><time>2021-07-17T06:16:41.400</time></trkpt><trkpt lat="55.7128717" lon="49.1622717"><time>2021-07-17T06:16:45.397</time></trkpt><trkpt lat="55.7128333" lon="49.1623150"><time>2021-07-17T06:16:47.383</time></trkpt><trkpt lat="55.7127817" lon="49.1623233"><time>2021-07-17T06:16:50.400</time></trkpt><trkpt lat="55.7127450" lon="49.1622767"><time>2021-07-17T06:16:54.377</time></trkpt><trkpt lat="55.7127067" lon="49.1622267"><time>2021-07-17T06:16:57.390</time></trkpt><trkpt lat="55.7126700" lon="49.1621683"><time>2021-07-17T06:17:00.387</time></trkpt><trkpt lat="55.7126417" lon="49.1620900"><time>2021-07-17T06:17:03.450</time></trkpt><trkpt lat="55.7126233" lon="49.1619800"><time>2021-07-17T06:17:06.423</time></trkpt><trkpt lat="55.7126117" lon="49.1618850"><time>2021-07-17T06:17:09.480</time></trkpt><trkpt lat="55.7126133" lon="49.1618050"><time>2021-07-17T06:17:12.423</time></trkpt><trkpt lat="55.7125867" lon="49.1617367"><time>2021-07-17T06:17:15.480</time></trkpt><trkpt lat="55.7125633" lon="49.1616583"><time>2021-07-17T06:17:18.417</time></trkpt><trkpt lat="55.7125417" lon="49.1615750"><time>2021-07-17T06:17:22.420</time></trkpt><trkpt lat="55.7125117" lon="49.1614767"><time>2021-07-17T06:17:25.407</time></trkpt><trkpt lat="55.7124767" lon="49.1613933"><time>2021-07-17T06:17:27.417</time></trkpt><trkpt lat="55.7124433" lon="49.1613050"><time>2021-07-17T06:17:29.390</time></trkpt><trkpt lat="55.7123950" lon="49.1612267"><time>2021-07-17T06:17:31.397</time></trkpt><trkpt lat="55.7123550" lon="49.1611633"><time>2021-07-17T06:17:33.403</time></trkpt><trkpt lat="55.7123033" lon="49.1610883"><time>2021-07-17T06:17:35.403</time></trkpt><trkpt lat="55.7122583" lon="49.1610250"><time>2021-07-17T06:17:37.403</time></trkpt><trkpt lat="55.7122200" lon="49.1609467"><time>2021-07-17T06:17:39.407</time></trkpt><trkpt lat="55.7121750" lon="49.1608633"><time>2021-07-17T06:17:42.453</time></trkpt><trkpt lat="55.7121383" lon="49.1608017"><time>2021-07-17T06:17:45.417</time></trkpt><trkpt lat="55.7120900" lon="49.1607533"><time>2021-07-17T06:17:49.420</time></trkpt><trkpt lat="55.7120467" lon="49.1607133"><time>2021-07-17T06:17:52.420</time></trkpt><trkpt lat="55.7119983" lon="49.1606600"><time>2021-07-17T06:17:55.423</time></trkpt><trkpt lat="55.7119550" lon="49.1605933"><time>2021-07-17T06:17:58.417</time></trkpt><trkpt lat="55.7119083" lon="49.1605417"><time>2021-07-17T06:18:01.413</time></trkpt><trkpt lat="55.7118783" lon="49.1604500"><time>2021-07-17T06:18:05.427</time></trkpt><trkpt lat="55.7118500" lon="49.1603833"><time>2021-07-17T06:18:08.423</time></trkpt><trkpt lat="55.7118250" lon="49.1602933"><time>2021-07-17T06:18:12.427</time></trkpt><trkpt lat="55.7118067" lon="49.1602017"><time>2021-07-17T06:18:15.420</time></trkpt><trkpt lat="55.7117683" lon="49.1601383"><time>2021-07-17T06:18:18.423</time></trkpt><trkpt lat="55.7117300" lon="49.1600867"><time>2021-07-17T06:18:21.423</time></trkpt><trkpt lat="55.7116833" lon="49.1600350"><time>2021-07-17T06:18:25.423</time></trkpt><trkpt lat="55.7116367" lon="49.1599800"><time>2021-07-17T06:18:29.420</time></trkpt><trkpt lat="55.7115933" lon="49.1599500"><time>2021-07-17T06:18:33.423</time></trkpt><trkpt lat="55.7115583" lon="49.1598967"><time>2021-07-17T06:18:36.420</time></trkpt><trkpt lat="55.7114133" lon="49.1594883"><time>2021-07-17T06:19:15.677</time></trkpt><trkpt lat="55.7113783" lon="49.1592617"><time>2021-07-17T06:19:16.213</time></trkpt><trkpt lat="55.7113217" lon="49.1591500"><time>2021-07-17T06:19:17.180</time></trkpt><trkpt lat="55.7113217" lon="49.1589783"><time>2021-07-17T06:19:18.197</time></trkpt><trkpt lat="55.7112583" lon="49.1588183"><time>2021-07-17T06:19:20.203</time></trkpt><trkpt lat="55.7112300" lon="49.1587467"><time>2021-07-17T06:19:21.197</time></trkpt><trkpt lat="55.7111700" lon="49.1586233"><time>2021-07-17T06:19:22.167</time></trkpt><trkpt lat="55.7111683" lon="49.1585100"><time>2021-07-17T06:19:24.203</time></trkpt><trkpt lat="55.7111650" lon="49.1583883"><time>2021-07-17T06:19:26.210</time></trkpt><trkpt lat="55.7111683" lon="49.1582900"><time>2021-07-17T06:19:28.210</time></trkpt><trkpt lat="55.7111800" lon="49.1581833"><time>2021-07-17T06:19:30.210</time></trkpt><trkpt lat="55.7111950" lon="49.1580950"><time>2021-07-17T06:19:32.257</time></trkpt><trkpt lat="55.7112183" lon="49.1579900"><time>2021-07-17T06:19:34.183</time></trkpt><trkpt lat="55.7112350" lon="49.1579017"><time>2021-07-17T06:19:36.423</time></trkpt><trkpt lat="55.7112350" lon="49.1578000"><time>2021-07-17T06:19:39.420</time></trkpt><trkpt lat="55.7112117" lon="49.1577150"><time>2021-07-17T06:19:43.463</time></trkpt><trkpt lat="55.7112200" lon="49.1575983"><time>2021-07-17T06:19:46.420</time></trkpt><trkpt lat="55.7112250" lon="49.1574967"><time>2021-07-17T06:19:50.423</time></trkpt><trkpt lat="55.7112283" lon="49.1573900"><time>2021-07-17T06:19:53.420</time></trkpt><trkpt lat="55.7112283" lon="49.1572933"><time>2021-07-17T06:19:55.407</time></trkpt><trkpt lat="55.7112267" lon="49.1572133"><time>2021-07-17T06:19:57.423</time></trkpt><trkpt lat="55.7112333" lon="49.1571133"><time>2021-07-17T06:20:01.417</time></trkpt><trkpt lat="55.7112367" lon="49.1570067"><time>2021-07-17T06:20:05.420</time></trkpt><trkpt lat="55.7112450" lon="49.1569233"><time>2021-07-17T06:20:09.417</time></trkpt><trkpt lat="55.7112750" lon="49.1568467"><time>2021-07-17T06:20:12.417</time></trkpt><trkpt lat="55.7113133" lon="49.1568050"><time>2021-07-17T06:20:14.417</time></trkpt><trkpt lat="55.7113517" lon="49.1567350"><time>2021-07-17T06:20:17.477</time></trkpt><trkpt lat="55.7113700" lon="49.1566183"><time>2021-07-17T06:20:20.420</time></trkpt><trkpt lat="55.7113667" lon="49.1564800"><time>2021-07-17T06:20:40.030</time></trkpt><trkpt lat="55.7114633" lon="49.1560083"><time>2021-07-17T06:20:40.457</time></trkpt><trkpt lat="55.7114417" lon="49.1559133"><time>2021-07-17T06:20:44.987</time></trkpt><trkpt lat="55.7114667" lon="49.1558317"><time>2021-07-17T06:20:47.967</time></trkpt><trkpt lat="55.7115100" lon="49.1557767"><time>2021-07-17T06:20:51.973</time></trkpt><trkpt lat="55.7115433" lon="49.1556967"><time>2021-07-17T06:20:55.947</time></trkpt><trkpt lat="55.7115683" lon="49.1556083"><time>2021-07-17T06:20:59.377</time></trkpt><trkpt lat="55.7115900" lon="49.1555200"><time>2021-07-17T06:21:03.387</time></trkpt><trkpt lat="55.7116100" lon="49.1554467"><time>2021-07-17T06:21:09.377</time></trkpt><trkpt lat="55.7116533" lon="49.1554200"><time>2021-07-17T06:21:16.387</time></trkpt><trkpt lat="55.7117000" lon="49.1554133"><time>2021-07-17T06:21:20.373</time></trkpt><trkpt lat="55.7117400" lon="49.1553750"><time>2021-07-17T06:21:27.367</time></trkpt><trkpt lat="55.7117817" lon="49.1554083"><time>2021-07-17T06:21:34.377</time></trkpt><trkpt lat="55.7118250" lon="49.1554350"><time>2021-07-17T06:21:41.380</time></trkpt><trkpt lat="55.7118250" lon="49.1554383"><time>2021-07-17T06:21:42.933</time></trkpt><trkpt lat="55.7117917" lon="49.1553250"><time>2021-07-17T06:22:03.390</time></trkpt><trkpt lat="55.7117717" lon="49.1552517"><time>2021-07-17T06:22:06.403</time></trkpt><trkpt lat="55.7117500" lon="49.1551800"><time>2021-07-17T06:22:10.373</time></trkpt><trkpt lat="55.7117067" lon="49.1551317"><time>2021-07-17T06:22:15.397</time></trkpt><trkpt lat="55.7116617" lon="49.1551517"><time>2021-07-17T06:22:20.397</time></trkpt><trkpt lat="55.7116250" lon="49.1552050"><time>2021-07-17T06:22:25.400</time></trkpt><trkpt lat="55.7115917" lon="49.1552867"><time>2021-07-17T06:22:30.393</time></trkpt><trkpt lat="55.7115767" lon="49.1553700"><time>2021-07-17T06:22:37.387</time></trkpt><trkpt lat="55.7116067" lon="49.1553050"><time>2021-07-17T06:23:00.493</time></trkpt><trkpt lat="55.7116383" lon="49.1552433"><time>2021-07-17T06:23:04.420</time></trkpt><trkpt lat="55.7116767" lon="49.1551833"><time>2021-07-17T06:23:08.427</time></trkpt><trkpt lat="55.7117283" lon="49.1551783"><time>2021-07-17T06:23:17.420</time></trkpt><trkpt lat="55.7117717" lon="49.1551450"><time>2021-07-17T06:23:25.420</time></trkpt><trkpt lat="55.7118167" lon="49.1550917"><time>2021-07-17T06:23:29.423</time></trkpt><trkpt lat="55.7118467" lon="49.1550250"><time>2021-07-17T06:23:33.400</time></trkpt><trkpt lat="55.7125550" lon="49.1536450"><time>2021-07-17T06:25:13.297</time></trkpt><trkpt lat="55.7125267" lon="49.1535650"><time>2021-07-17T06:25:13.803</time></trkpt><trkpt lat="55.7124883" lon="49.1534817"><time>2021-07-17T06:25:14.300</time></trkpt><trkpt lat="55.7124183" lon="49.1533633"><time>2021-07-17T06:25:14.817</time></trkpt><trkpt lat="55.7125467" lon="49.1534200"><time>2021-07-17T06:25:16.817</time></trkpt><trkpt lat="55.7125700" lon="49.1533467"><time>2021-07-17T06:25:22.820</time></trkpt><trkpt lat="55.7125867" lon="49.1532617"><time>2021-07-17T06:25:34.417</time></trkpt><trkpt lat="55.7126233" lon="49.1531833"><time>2021-07-17T06:25:38.420</time></trkpt><trkpt lat="55.7126633" lon="49.1531233"><time>2021-07-17T06:25:42.477</time></trkpt><trkpt lat="55.7127083" lon="49.1531550"><time>2021-07-17T06:25:57.417</time></trkpt><trkpt lat="55.7127567" lon="49.1531983"><time>2021-07-17T06:26:01.423</time></trkpt><trkpt lat="55.7128050" lon="49.1532200"><time>2021-07-17T06:26:04.417</time></trkpt><trkpt lat="55.7128533" lon="49.1532433"><time>2021-07-17T06:26:07.420</time></trkpt><trkpt lat="55.7128967" lon="49.1532683"><time>2021-07-17T06:26:10.470</time></trkpt><trkpt lat="55.7140350" lon="49.1537400"><time>2021-07-17T06:27:35.693</time></trkpt><trkpt lat="55.7141350" lon="49.1537550"><time>2021-07-17T06:27:36.707</time></trkpt><trkpt lat="55.7142250" lon="49.1535567"><time>2021-07-17T06:27:37.703</time></trkpt><trkpt lat="55.7143050" lon="49.1533183"><time>2021-07-17T06:27:38.707</time></trkpt><trkpt lat="55.7143433" lon="49.1532250"><time>2021-07-17T06:27:39.693</time></trkpt><trkpt lat="55.7143767" lon="49.1531350"><time>2021-07-17T06:27:40.687</time></trkpt><trkpt lat="55.7144317" lon="49.1531067"><time>2021-07-17T06:27:42.703</time></trkpt><trkpt lat="55.7144783" lon="49.1531233"><time>2021-07-17T06:27:44.707</time></trkpt><trkpt lat="55.7145317" lon="49.1530700"><time>2021-07-17T06:27:46.707</time></trkpt><trkpt lat="55.7145917" lon="49.1531167"><time>2021-07-17T06:27:49.757</time></trkpt><trkpt lat="55.7146450" lon="49.1531400"><time>2021-07-17T06:27:52.707</time></trkpt><trkpt lat="55.7146983" lon="49.1531767"><time>2021-07-17T06:27:56.707</time></trkpt><trkpt lat="55.7147417" lon="49.1532067"><time>2021-07-17T06:27:58.703</time></trkpt><trkpt lat="55.7147867" lon="49.1532467"><time>2021-07-17T06:28:01.737</time></trkpt><trkpt lat="55.7148383" lon="49.1532800"><time>2021-07-17T06:28:05.707</time></trkpt><trkpt lat="55.7148817" lon="49.1533050"><time>2021-07-17T06:28:08.707</time></trkpt><trkpt lat="55.7149300" lon="49.1533417"><time>2021-07-17T06:28:11.683</time></trkpt><trkpt lat="55.7149733" lon="49.1533650"><time>2021-07-17T06:28:14.707</time></trkpt><trkpt lat="55.7150283" lon="49.1534133"><time>2021-07-17T06:28:17.707</time></trkpt><trkpt lat="55.7150867" lon="49.1534450"><time>2021-07-17T06:28:20.707</time></trkpt><trkpt lat="55.7151400" lon="49.1534500"><time>2021-07-17T06:28:22.707</time></trkpt><trkpt lat="55.7151917" lon="49.1534567"><time>2021-07-17T06:28:25.760</time></trkpt><trkpt lat="55.7152417" lon="49.1534733"><time>2021-07-17T06:28:28.707</time></trkpt><trkpt lat="55.7152750" lon="49.1535350"><time>2021-07-17T06:28:32.707</time></trkpt><trkpt lat="55.7152767" lon="49.1535333"><time>2021-07-17T06:45:11.153</time></trkpt><trkpt lat="55.7217033" lon="49.1573133"><time>2021-07-17T06:45:14.933</time></trkpt><trkpt lat="55.7216583" lon="49.1572900"><time>2021-07-17T06:45:17.937</time></trkpt><trkpt lat="55.7216317" lon="49.1572050"><time>2021-07-17T06:45:20.937</time></trkpt><trkpt lat="55.7216783" lon="49.1570700"><time>2021-07-17T06:45:21.937</time></trkpt><trkpt lat="55.7216483" lon="49.1571567"><time>2021-07-17T06:45:24.937</time></trkpt><trkpt lat="55.7217050" lon="49.1571233"><time>2021-07-17T06:45:30.990</time></trkpt><trkpt lat="55.7217083" lon="49.1572100"><time>2021-07-17T06:45:31.940</time></trkpt><trkpt lat="55.7217650" lon="49.1571717"><time>2021-07-17T06:45:34.940</time></trkpt><trkpt lat="55.7218167" lon="49.1571350"><time>2021-07-17T06:45:37.933</time></trkpt><trkpt lat="55.7218400" lon="49.1570633"><time>2021-07-17T06:45:41.933</time></trkpt><trkpt lat="55.7218700" lon="49.1569883"><time>2021-07-17T06:45:44.940</time></trkpt><trkpt lat="55.7219200" lon="49.1569350"><time>2021-07-17T06:45:47.927</time></trkpt><trkpt lat="55.7219817" lon="49.1568950"><time>2021-07-17T06:45:50.417</time></trkpt><trkpt lat="55.7220417" lon="49.1568717"><time>2021-07-17T06:45:52.417</time></trkpt><trkpt lat="55.7221000" lon="49.1568450"><time>2021-07-17T06:45:54.417</time></trkpt><trkpt lat="55.7221633" lon="49.1568217"><time>2021-07-17T06:45:56.440</time></trkpt><trkpt lat="55.7222217" lon="49.1568117"><time>2021-07-17T06:45:58.420</time></trkpt><trkpt lat="55.7222783" lon="49.1568050"><time>2021-07-17T06:46:00.417</time></trkpt><trkpt lat="55.7223367" lon="49.1568000"><time>2021-07-17T06:46:03.393</time></trkpt><trkpt lat="55.7252483" lon="49.1611333"><time>2021-07-17T06:58:06.563</time></trkpt><trkpt lat="55.7251683" lon="49.1612300"><time>2021-07-17T06:58:07.573</time></trkpt><trkpt lat="55.7252033" lon="49.1613133"><time>2021-07-17T06:58:10.590</time></trkpt><trkpt lat="55.7252167" lon="49.1614017"><time>2021-07-17T06:58:12.593</time></trkpt><trkpt lat="55.7251883" lon="49.1613383"><time>2021-07-17T06:58:17.590</time></trkpt><trkpt lat="55.7251833" lon="49.1612400"><time>2021-07-17T06:58:22.580</time></trkpt><trkpt lat="55.7251933" lon="49.1611600"><time>2021-07-17T06:58:26.593</time></trkpt><trkpt lat="55.7251867" lon="49.1610717"><time>2021-07-17T06:58:29.590</time></trkpt><trkpt lat="55.7251733" lon="49.1609817"><time>2021-07-17T06:58:34.413</time></trkpt><trkpt lat="55.7251917" lon="49.1609000"><time>2021-07-17T06:58:40.377</time></trkpt><trkpt lat="55.7251850" lon="49.1608183"><time>2021-07-17T06:58:44.377</time></trkpt><trkpt lat="55.7251517" lon="49.1607317"><time>2021-07-17T06:58:48.377</time></trkpt><trkpt lat="55.7251367" lon="49.1606433"><time>2021-07-17T06:58:51.407</time></trkpt><trkpt lat="55.7251517" lon="49.1605583"><time>2021-07-17T06:58:54.407</time></trkpt><trkpt lat="55.7251467" lon="49.1604700"><time>2021-07-17T06:58:57.380</time></trkpt><trkpt lat="55.7251333" lon="49.1603600"><time>2021-07-17T06:59:00.393</time></trkpt><trkpt lat="55.7251100" lon="49.1602750"><time>2021-07-17T06:59:04.397</time></trkpt><trkpt lat="55.7250883" lon="49.1601967"><time>2021-07-17T06:59:09.393</time></trkpt><trkpt lat="55.7250467" lon="49.1601350"><time>2021-07-17T06:59:13.387</time></trkpt><trkpt lat="55.7250433" lon="49.1600533"><time>2021-07-17T06:59:17.417</time></trkpt><trkpt lat="55.7250517" lon="49.1599733"><time>2021-07-17T06:59:21.397</time></trkpt><trkpt lat="55.7250450" lon="49.1598933"><time>2021-07-17T06:59:26.397</time></trkpt><trkpt lat="55.7250517" lon="49.1598067"><time>2021-07-17T06:59:38.543</time></trkpt><trkpt lat="55.7250017" lon="49.1597600"><time>2021-07-17T06:59:46.417</time></trkpt><trkpt lat="55.7249817" lon="49.1596883"><time>2021-07-17T06:59:50.413</time></trkpt><trkpt lat="55.7249367" lon="49.1596783"><time>2021-07-17T06:59:59.420</time></trkpt><trkpt lat="55.7248917" lon="49.1596450"><time>2021-07-17T07:00:05.417</time></trkpt><trkpt lat="55.7248450" lon="49.1596333"><time>2021-07-17T07:00:08.373</time></trkpt><trkpt lat="55.7248133" lon="49.1595667"><time>2021-07-17T07:00:15.380</time></trkpt><trkpt lat="55.7247783" lon="49.1595033"><time>2021-07-17T07:00:37.380</time></trkpt><trkpt lat="55.7247400" lon="49.1594600"><time>2021-07-17T07:00:41.377</time></trkpt><trkpt lat="55.7247033" lon="49.1594033"><time>2021-07-17T07:00:47.430</time></trkpt><trkpt lat="55.7247267" lon="49.1594783"><time>2021-07-17T07:01:21.417</time></trkpt><trkpt lat="55.7247383" lon="49.1595700"><time>2021-07-17T07:01:25.420</time></trkpt><trkpt lat="55.7247733" lon="49.1596450"><time>2021-07-17T07:01:28.473</time></trkpt><trkpt lat="55.7247983" lon="49.1597167"><time>2021-07-17T07:01:31.420</time></trkpt><trkpt lat="55.7248350" lon="49.1597817"><time>2021-07-17T07:01:35.420</time></trkpt><trkpt lat="55.7248867" lon="49.1598167"><time>2021-07-17T07:01:40.400</time></trkpt><trkpt lat="55.7249367" lon="49.1598500"><time>2021-07-17T07:01:44.423</time></trkpt><trkpt lat="55.7249817" lon="49.1598500"><time>2021-07-17T07:01:48.420</time></trkpt><trkpt lat="55.7249817" lon="49.1599367"><time>2021-07-17T07:01:59.387</time></trkpt><trkpt lat="55.7249883" lon="49.1600267"><time>2021-07-17T07:02:06.397</time></trkpt><trkpt lat="55.7249950" lon="49.1600300"><time>2021-07-17T07:04:12.423</time></trkpt><trkpt lat="55.7229233" lon="49.1594933"><time>2021-07-17T07:04:21.890</time></trkpt><trkpt lat="55.7245700" lon="49.1614300"><time>2021-07-17T07:04:22.890</time></trkpt><trkpt lat="55.7247300" lon="49.1616200"><time>2021-07-17T07:04:23.887</time></trkpt><trkpt lat="55.7247683" lon="49.1616783"><time>2021-07-17T07:04:24.887</time></trkpt><trkpt lat="55.7248167" lon="49.1617217"><time>2021-07-17T07:04:28.893</time></trkpt><trkpt lat="55.7248583" lon="49.1617950"><time>2021-07-17T07:04:30.890</time></trkpt><trkpt lat="55.7249650" lon="49.1619400"><time>2021-07-17T07:04:31.883</time></trkpt><trkpt lat="55.7249333" lon="49.1618750"><time>2021-07-17T07:04:35.400</time></trkpt><trkpt lat="55.7249500" lon="49.1619633"><time>2021-07-17T07:04:44.403</time></trkpt><trkpt lat="55.7249567" lon="49.1620467"><time>2021-07-17T07:04:48.390</time></trkpt><trkpt lat="55.7249417" lon="49.1621350"><time>2021-07-17T07:04:52.400</time></trkpt><trkpt lat="55.7249250" lon="49.1622183"><time>2021-07-17T07:04:57.383</time></trkpt><trkpt lat="55.7249583" lon="49.1622900"><time>2021-07-17T07:05:02.390</time></trkpt><trkpt lat="55.7250050" lon="49.1623350"><time>2021-07-17T07:05:10.413</time></trkpt><trkpt lat="55.7249867" lon="49.1624100"><time>2021-07-17T07:05:13.417</time></trkpt><trkpt lat="55.7249883" lon="49.1625017"><time>2021-07-17T07:05:18.473</time></trkpt><trkpt lat="55.7249950" lon="49.1625867"><time>2021-07-17T07:05:23.417</time></trkpt><trkpt lat="55.7249533" lon="49.1626600"><time>2021-07-17T07:05:29.417</time></trkpt><trkpt lat="55.7249483" lon="49.1627583"><time>2021-07-17T07:05:33.413</time></trkpt><trkpt lat="55.7249383" lon="49.1628467"><time>2021-07-17T07:05:37.413</time></trkpt><trkpt lat="55.7249350" lon="49.1629383"><time>2021-07-17T07:05:41.417</time></trkpt><trkpt lat="55.7249383" lon="49.1630467"><time>2021-07-17T07:05:44.420</time></trkpt><trkpt lat="55.7249533" lon="49.1631250"><time>2021-07-17T07:05:47.413</time></trkpt><trkpt lat="55.7249800" lon="49.1631933"><time>2021-07-17T07:05:53.417</time></trkpt><trkpt lat="55.7250250" lon="49.1631550"><time>2021-07-17T07:05:59.367</time></trkpt><trkpt lat="55.7250650" lon="49.1630617"><time>2021-07-17T07:06:01.367</time></trkpt><trkpt lat="55.7250833" lon="49.1629050"><time>2021-07-17T07:06:03.357</time></trkpt><trkpt lat="55.7250850" lon="49.1628117"><time>2021-07-17T07:06:05.363</time></trkpt><trkpt lat="55.7250650" lon="49.1629350"><time>2021-07-17T07:06:08.377</time></trkpt><trkpt lat="55.7250467" lon="49.1630417"><time>2021-07-17T07:06:09.380</time></trkpt><trkpt lat="55.7250467" lon="49.1631483"><time>2021-07-17T07:06:12.367</time></trkpt><trkpt lat="55.7250683" lon="49.1632317"><time>2021-07-17T07:06:15.373</time></trkpt><trkpt lat="55.7251250" lon="49.1632467"><time>2021-07-17T07:06:18.370</time></trkpt><trkpt lat="55.7251900" lon="49.1633083"><time>2021-07-17T07:06:20.370</time></trkpt><trkpt lat="55.7252500" lon="49.1633517"><time>2021-07-17T07:06:22.367</time></trkpt><trkpt lat="55.7252667" lon="49.1634383"><time>2021-07-17T07:06:26.373</time></trkpt><trkpt lat="55.7252617" lon="49.1635267"><time>2021-07-17T07:06:30.373</time></trkpt><trkpt lat="55.7252717" lon="49.1636067"><time>2021-07-17T07:06:33.377</time></trkpt><trkpt lat="55.7253417" lon="49.1635700"><time>2021-07-17T07:06:36.387</time></trkpt><trkpt lat="55.7253817" lon="49.1635333"><time>2021-07-17T07:06:37.387</time></trkpt><trkpt lat="55.7254033" lon="49.1636150"><time>2021-07-17T07:06:41.387</time></trkpt><trkpt lat="55.7254533" lon="49.1636150"><time>2021-07-17T07:06:45.383</time></trkpt><trkpt lat="55.7254750" lon="49.1636933"><time>2021-07-17T07:06:51.410</time></trkpt><trkpt lat="55.7254683" lon="49.1637850"><time>2021-07-17T07:06:54.387</time></trkpt><trkpt lat="55.7254600" lon="49.1638633"><time>2021-07-17T07:06:57.400</time></trkpt><trkpt lat="55.7263850" lon="49.1725650"><time>2021-07-17T07:44:57.713</time></trkpt><trkpt lat="55.7264533" lon="49.1867883"><time>2021-07-17T07:45:00.677</time></trkpt><trkpt lat="55.7263050" lon="49.1867933"><time>2021-07-17T07:45:01.667</time></trkpt><trkpt lat="55.7263417" lon="49.1869167"><time>2021-07-17T07:45:02.677</time></trkpt><trkpt lat="55.7257617" lon="49.1866633"><time>2021-07-17T07:45:03.670</time></trkpt><trkpt lat="55.7258117" lon="49.1866467"><time>2021-07-17T07:45:08.673</time></trkpt><trkpt lat="55.7258633" lon="49.1866817"><time>2021-07-17T07:45:12.680</time></trkpt><trkpt lat="55.7259100" lon="49.1866683"><time>2021-07-17T07:45:14.677</time></trkpt><trkpt lat="55.7259617" lon="49.1866450"><time>2021-07-17T07:45:16.687</time></trkpt><trkpt lat="55.7260200" lon="49.1866483"><time>2021-07-17T07:45:19.677</time></trkpt><trkpt lat="55.7260883" lon="49.1865983"><time>2021-07-17T07:45:23.673</time></trkpt><trkpt lat="55.7261333" lon="49.1865950"><time>2021-07-17T07:45:26.683</time></trkpt><trkpt lat="55.7261917" lon="49.1865867"><time>2021-07-17T07:45:28.680</time></trkpt><trkpt lat="55.7265983" lon="49.1869200"><time>2021-07-17T07:45:31.677</time></trkpt><trkpt lat="55.7266650" lon="49.1867967"><time>2021-07-17T07:45:34.393</time></trkpt><trkpt lat="55.7266983" lon="49.1867400"><time>2021-07-17T07:45:38.383</time></trkpt><trkpt lat="55.7267567" lon="49.1867417"><time>2021-07-17T07:46:10.470</time></trkpt><trkpt lat="55.7268083" lon="49.1867450"><time>2021-07-17T07:46:13.413</time></trkpt><trkpt lat="55.7268667" lon="49.1867567"><time>2021-07-17T07:46:15.413</time></trkpt><trkpt lat="55.7269217" lon="49.1867650"><time>2021-07-17T07:46:17.417</time></trkpt><trkpt lat="55.7269633" lon="49.1867283"><time>2021-07-17T07:46:20.413</time></trkpt><trkpt lat="55.7270200" lon="49.1867033"><time>2021-07-17T07:46:23.400</time></trkpt><trkpt lat="55.7270717" lon="49.1866633"><time>2021-07-17T07:46:27.413</time></trkpt><trkpt lat="55.7271333" lon="49.1866300"><time>2021-07-17T07:46:30.417</time></trkpt><trkpt lat="55.7271767" lon="49.1865967"><time>2021-07-17T07:46:33.407</time></trkpt><trkpt lat="55.7272283" lon="49.1865267"><time>2021-07-17T07:46:36.417</time></trkpt><trkpt lat="55.7272717" lon="49.1864950"><time>2021-07-17T07:46:39.413</time></trkpt><trkpt lat="55.7273183" lon="49.1865183"><time>2021-07-17T07:47:05.377</time></trkpt><trkpt lat="55.7273667" lon="49.1865367"><time>2021-07-17T07:47:12.397</time></trkpt><trkpt lat="55.7273767" lon="49.1866183"><time>2021-07-17T07:47:17.380</time></trkpt><trkpt lat="55.7274183" lon="49.1866600"><time>2021-07-17T07:47:21.373</time></trkpt><trkpt lat="55.7274700" lon="49.1867083"><time>2021-07-17T07:47:25.370</time></trkpt><trkpt lat="55.7275150" lon="49.1867383"><time>2021-07-17T07:47:28.383</time></trkpt><trkpt lat="55.7275617" lon="49.1867183"><time>2021-07-17T07:47:31.367</time></trkpt><trkpt lat="55.7276150" lon="49.1867150"><time>2021-07-17T07:47:35.367</time></trkpt><trkpt lat="55.7276667" lon="49.1866600"><time>2021-07-17T07:47:38.380</time></trkpt><trkpt lat="55.7277183" lon="49.1866467"><time>2021-07-17T07:47:42.377</time></trkpt><trkpt lat="55.7277600" lon="49.1867033"><time>2021-07-17T07:47:46.370</time></trkpt><trkpt lat="55.7277950" lon="49.1867750"><time>2021-07-17T07:47:51.393</time></trkpt><trkpt lat="55.7278417" lon="49.1868183"><time>2021-07-17T07:47:55.363</time></trkpt><trkpt lat="55.7278717" lon="49.1868817"><time>2021-07-17T07:47:58.390</time></trkpt><trkpt lat="55.7278950" lon="49.1869500"><time>2021-07-17T07:48:01.373</time></trkpt><trkpt lat="55.7300617" lon="49.1897783"><time>2021-07-17T08:02:19.557</time></trkpt><trkpt lat="55.7305700" lon="49.1959750"><time>2021-07-17T08:02:24.720</time></trkpt><trkpt lat="55.7287767" lon="49.1950217"><time>2021-07-17T08:02:25.737</time></trkpt><trkpt lat="55.7290667" lon="49.1950733"><time>2021-07-17T08:02:26.747</time></trkpt><trkpt lat="55.7290317" lon="49.1949983"><time>2021-07-17T08:02:29.747</time></trkpt><trkpt lat="55.7289950" lon="49.1949483"><time>2021-07-17T08:02:31.747</time></trkpt><trkpt lat="55.7291033" lon="49.1948983"><time>2021-07-17T08:02:32.733</time></trkpt><trkpt lat="55.7293417" lon="49.1948200"><time>2021-07-17T08:02:33.737</time></trkpt><trkpt lat="55.7294633" lon="49.1948033"><time>2021-07-17T08:02:34.800</time></trkpt><trkpt lat="55.7295533" lon="49.1947983"><time>2021-07-17T08:02:35.753</time></trkpt><trkpt lat="55.7304600" lon="49.1960483"><time>2021-07-17T08:02:36.737</time></trkpt><trkpt lat="55.7305200" lon="49.1960167"><time>2021-07-17T08:02:39.403</time></trkpt><trkpt lat="55.7305500" lon="49.1960817"><time>2021-07-17T08:02:56.400</time></trkpt><trkpt lat="55.7306050" lon="49.1961050"><time>2021-07-17T08:03:01.413</time></trkpt><trkpt lat="55.7352033" lon="49.1915717"><time>2021-07-17T08:10:47.953</time></trkpt><trkpt lat="55.7350667" lon="49.1915967"><time>2021-07-17T08:10:48.953</time></trkpt><trkpt lat="55.7350200" lon="49.1915900"><time>2021-07-17T08:10:49.950</time></trkpt><trkpt lat="55.7349700" lon="49.1915500"><time>2021-07-17T08:10:51.950</time></trkpt><trkpt lat="55.7349600" lon="49.1914617"><time>2021-07-17T08:10:54.947</time></trkpt><trkpt lat="55.7349450" lon="49.1913850"><time>2021-07-17T08:10:58.947</time></trkpt><trkpt lat="55.7350050" lon="49.1913600"><time>2021-07-17T08:11:03.957</time></trkpt><trkpt lat="55.7350650" lon="49.1913900"><time>2021-07-17T08:11:07.013</time></trkpt><trkpt lat="55.7351200" lon="49.1913883"><time>2021-07-17T08:11:11.407</time></trkpt><trkpt lat="55.7351783" lon="49.1913867"><time>2021-07-17T08:11:14.407</time></trkpt><trkpt lat="55.7352200" lon="49.1914217"><time>2021-07-17T08:11:18.407</time></trkpt><trkpt lat="55.7352717" lon="49.1914617"><time>2021-07-17T08:11:25.403</time></trkpt><trkpt lat="55.7353150" lon="49.1915250"><time>2021-07-17T08:11:31.413</time></trkpt><trkpt lat="55.7352133" lon="49.1916850"><time>2021-07-17T08:14:02.397</time></trkpt><trkpt lat="55.7357883" lon="49.1924567"><time>2021-07-17T08:14:03.380</time></trkpt><trkpt lat="55.7358367" lon="49.1923767"><time>2021-07-17T08:14:04.383</time></trkpt><trkpt lat="55.7358850" lon="49.1923233"><time>2021-07-17T08:14:05.390</time></trkpt><trkpt lat="55.7359400" lon="49.1923033"><time>2021-07-17T08:14:06.387</time></trkpt><trkpt lat="55.7360233" lon="49.1923067"><time>2021-07-17T08:14:07.383</time></trkpt><trkpt lat="55.7361267" lon="49.1922933"><time>2021-07-17T08:14:08.390</time></trkpt><trkpt lat="55.7362250" lon="49.1923850"><time>2021-07-17T08:14:09.380</time></trkpt><trkpt lat="55.7362800" lon="49.1924517"><time>2021-07-17T08:14:10.390</time></trkpt><trkpt lat="55.7363383" lon="49.1924983"><time>2021-07-17T08:14:11.380</time></trkpt><trkpt lat="55.7363833" lon="49.1925433"><time>2021-07-17T08:14:12.383</time></trkpt><trkpt lat="55.7364233" lon="49.1926217"><time>2021-07-17T08:14:15.380</time></trkpt><trkpt lat="55.7364717" lon="49.1926783"><time>2021-07-17T08:14:23.427</time></trkpt><trkpt lat="55.7365083" lon="49.1927300"><time>2021-07-17T08:14:27.410</time></trkpt><trkpt lat="55.7365483" lon="49.1926783"><time>2021-07-17T08:14:34.383</time></trkpt><trkpt lat="55.7365900" lon="49.1926333"><time>2021-07-17T08:14:37.407</time></trkpt><trkpt lat="55.7366250" lon="49.1925750"><time>2021-07-17T08:14:41.413</time></trkpt><trkpt lat="55.7366617" lon="49.1925250"><time>2021-07-17T08:14:46.417</time></trkpt><trkpt lat="55.7367050" lon="49.1924967"><time>2021-07-17T08:14:50.407</time></trkpt><trkpt lat="55.7370700" lon="49.1937900"><time>2021-07-17T08:19:40.733</time></trkpt><trkpt lat="55.7370817" lon="49.1937567"><time>2021-07-17T08:19:44.993</time></trkpt><trkpt lat="55.7370083" lon="49.1937417"><time>2021-07-17T08:19:46.997</time></trkpt><trkpt lat="55.7369567" lon="49.1937433"><time>2021-07-17T08:19:48</time></trkpt><trkpt lat="55.7369133" lon="49.1937150"><time>2021-07-17T08:19:51.977</time></trkpt><trkpt lat="55.7368817" lon="49.1936550"><time>2021-07-17T08:19:56.987</time></trkpt><trkpt lat="55.7369267" lon="49.1936200"><time>2021-07-17T08:20:12.993</time></trkpt><trkpt lat="55.7369633" lon="49.1936833"><time>2021-07-17T08:20:22.993</time></trkpt><trkpt lat="55.7370033" lon="49.1937433"><time>2021-07-17T08:20:30.363</time></trkpt><trkpt lat="55.7370533" lon="49.1937317"><time>2021-07-17T08:20:35.373</time></trkpt><trkpt lat="55.7371033" lon="49.1937483"><time>2021-07-17T08:20:39.387</time></trkpt><trkpt lat="55.7371383" lon="49.1936933"><time>2021-07-17T08:20:44.400</time></trkpt><trkpt lat="55.7132333" lon="49.1629283"><time>2021-07-17T09:14:48.873</time></trkpt><trkpt lat="55.7132567" lon="49.1628333"><time>2021-07-17T09:14:51.367</time></trkpt><trkpt lat="55.7132450" lon="49.1627317"><time>2021-07-17T09:14:53.367</time></trkpt><trkpt lat="55.7132217" lon="49.1626517"><time>2021-07-17T09:14:56.367</time></trkpt></trkseg></trk></gpx>